createdAt,value
2023-04-18T00:01:59.704Z,100.00
2023-04-18T00:04:27.069Z,100.00
2023-04-18T00:06:54.270Z,100.00
2023-04-18T00:09:21.300Z,100.00
2023-04-18T00:11:48.496Z,100.00
2023-04-18T00:14:15.701Z,100.00
2023-04-18T00:20:26.832Z,100.00
2023-04-18T00:22:55.042Z,100.00
2023-04-18T00:25:22.206Z,100.00
2023-04-18T00:27:49.212Z,100.00
2023-04-18T00:30:16.376Z,100.00
2023-04-18T00:32:43.451Z,100.00
2023-04-18T00:35:10.521Z,100.00
2023-04-18T00:37:37.560Z,100.00
2023-04-18T00:40:05.731Z,100.00
2023-04-18T00:42:34.068Z,100.00
2023-04-18T00:45:01.620Z,100.00
2023-04-18T00:47:28.756Z,100.00
2023-04-18T00:49:56.756Z,100.00
2023-04-18T00:52:27.282Z,100.00
2023-04-18T00:54:55.581Z,100.00
2023-04-18T00:57:22.764Z,100.00
2023-04-18T00:59:50.392Z,100.00
2023-04-18T01:02:17.653Z,100.00
2023-04-18T01:04:44.989Z,100.00
2023-04-18T01:07:12.286Z,100.00
2023-04-18T01:09:40.257Z,100.00
2023-04-18T01:12:07.270Z,100.00
2023-04-18T01:14:34.287Z,100.00
2023-04-18T01:17:01.656Z,100.00
2023-04-18T01:19:28.771Z,100.00
2023-04-18T01:22:13.490Z,100.00
2023-04-18T01:24:41.087Z,100.00
2023-04-18T01:27:13.602Z,100.00
2023-04-18T01:29:41.024Z,100.00
2023-04-18T01:32:08.254Z,100.00
2023-04-18T01:34:35.337Z,100.00
2023-04-18T01:37:02.346Z,100.00
2023-04-18T01:39:29.407Z,100.00
2023-04-18T01:41:56.408Z,100.00
2023-04-18T01:44:23.410Z,100.00
2023-04-18T01:46:50.598Z,100.00
2023-04-18T01:49:17.603Z,100.00
2023-04-18T01:51:44.628Z,100.00
2023-04-18T01:54:12.010Z,100.00
2023-04-18T01:56:39.202Z,100.00
2023-04-18T01:59:06.233Z,100.00
2023-04-18T02:01:33.209Z,100.00
2023-04-18T02:04:00.320Z,100.00
2023-04-18T02:06:27.373Z,100.00
2023-04-18T02:08:54.438Z,100.00
2023-04-18T02:11:22.200Z,100.00
2023-04-18T02:13:49.197Z,100.00
2023-04-18T02:16:16.407Z,100.00
2023-04-18T02:18:44.173Z,100.00
2023-04-18T02:21:11.952Z,100.00
2023-04-18T02:23:39.028Z,100.00
2023-04-18T02:26:06.637Z,100.00
2023-04-18T02:28:33.716Z,100.00
2023-04-18T02:31:01.109Z,100.00
2023-04-18T02:33:28.293Z,100.00
2023-04-18T02:35:55.288Z,100.00
2023-04-18T02:38:22.260Z,100.00
2023-04-18T02:40:49.275Z,100.00
2023-04-18T02:43:16.234Z,100.00
2023-04-18T02:45:43.275Z,100.00
2023-04-18T02:48:10.301Z,100.00
2023-04-18T02:50:37.343Z,100.00
2023-04-18T02:53:04.451Z,100.00
2023-04-18T02:55:32.156Z,100.00
2023-04-18T02:57:59.201Z,100.00
2023-04-18T03:00:26.960Z,100.00
2023-04-18T03:02:54.174Z,100.00
2023-04-18T03:05:22.270Z,100.00
2023-04-18T03:07:49.276Z,100.00
2023-04-18T03:10:16.536Z,100.00
2023-04-18T03:12:43.554Z,100.00
2023-04-18T03:15:11.453Z,100.00
2023-04-18T03:17:39.269Z,100.00
2023-04-18T03:20:08.064Z,100.00
2023-04-18T03:22:35.104Z,100.00
2023-04-18T03:25:02.138Z,100.00
2023-04-18T03:27:29.133Z,100.00
2023-04-18T03:29:56.136Z,100.00
2023-04-18T03:32:23.175Z,100.00
2023-04-18T03:34:51.776Z,100.00
2023-04-18T03:37:18.791Z,100.00
2023-04-18T03:39:45.802Z,100.00
2023-04-18T03:42:12.807Z,100.00
2023-04-18T03:44:39.855Z,100.00
2023-04-18T03:47:06.873Z,100.00
2023-04-18T03:49:33.864Z,100.00
2023-04-18T03:52:00.953Z,100.00
2023-04-18T03:54:28.003Z,100.00
2023-04-18T03:56:55.780Z,100.00
2023-04-18T03:59:22.828Z,100.00
2023-04-18T04:01:49.825Z,100.00
2023-04-18T04:04:17.382Z,100.00
2023-04-18T04:06:44.884Z,100.00
2023-04-18T04:09:11.878Z,100.00
2023-04-18T04:11:39.643Z,100.00
2023-04-18T04:14:06.659Z,100.00
2023-04-18T04:16:33.757Z,100.00
2023-04-18T04:19:00.908Z,100.00
2023-04-18T04:21:27.900Z,100.00
2023-04-18T04:23:54.888Z,100.00
2023-04-18T04:26:23.307Z,100.00
2023-04-18T04:28:51.678Z,100.00
2023-04-18T04:31:18.804Z,100.00
2023-04-18T04:33:46.694Z,100.00
2023-04-18T04:36:16.710Z,100.00
2023-04-18T04:38:45.684Z,100.00
2023-04-18T04:41:12.872Z,100.00
2023-04-18T04:43:41.352Z,100.00
2023-04-18T04:46:08.836Z,100.00
2023-04-18T04:48:35.843Z,100.00
2023-04-18T04:51:02.840Z,100.00
2023-04-18T04:53:33.187Z,100.00
2023-04-18T04:56:00.342Z,100.00
2023-04-18T04:58:28.549Z,100.00
2023-04-18T05:00:55.857Z,100.00
2023-04-18T05:03:23.418Z,100.00
2023-04-18T05:05:50.616Z,100.00
2023-04-18T05:08:17.650Z,100.00
2023-04-18T05:10:46.004Z,100.00
2023-04-18T05:13:13.010Z,100.00
2023-04-18T05:15:40.508Z,100.00
2023-04-18T05:18:07.548Z,100.00
2023-04-18T05:20:34.655Z,100.00
2023-04-18T05:23:01.647Z,100.00
2023-04-18T05:25:29.908Z,100.00
2023-04-18T05:27:57.135Z,100.00
2023-04-18T05:30:24.232Z,100.00
2023-04-18T05:32:51.260Z,100.00
2023-04-18T05:35:18.361Z,100.00
2023-04-18T05:37:45.371Z,100.00
2023-04-18T05:40:13.542Z,100.00
2023-04-18T05:42:41.010Z,99.01
2023-04-18T05:45:08.786Z,97.74
2023-04-18T05:47:36.030Z,99.55
2023-04-18T05:50:03.171Z,99.22
2023-04-18T05:52:30.271Z,97.29
2023-04-18T05:54:57.280Z,95.99
2023-04-18T05:57:24.301Z,96.19
2023-04-18T05:59:51.305Z,95.33
2023-04-18T06:02:18.432Z,95.22
2023-04-18T06:04:46.273Z,94.59
2023-04-18T06:07:13.424Z,95.84
2023-04-18T06:09:40.462Z,93.63
2023-04-18T06:12:07.485Z,94.38
2023-04-18T06:14:34.488Z,94.57
2023-04-18T06:17:01.514Z,94.57
2023-04-18T06:19:28.534Z,93.16
2023-04-18T06:21:55.576Z,93.08
2023-04-18T06:24:23.135Z,93.24
2023-04-18T06:26:50.204Z,93.59
2023-04-18T06:29:18.258Z,93.68
2023-04-18T06:31:46.771Z,92.93
2023-04-18T06:34:14.206Z,92.64
2023-04-18T06:36:41.382Z,93.22
2023-04-18T06:39:08.767Z,95.03
2023-04-18T06:41:35.790Z,94.24
2023-04-18T06:44:04.479Z,93.34
2023-04-18T06:46:33.055Z,91.66
2023-04-18T06:49:00.511Z,92.99
2023-04-18T06:51:27.678Z,92.83
2023-04-18T06:53:54.711Z,91.64
2023-04-18T06:56:22.852Z,91.30
2023-04-18T06:58:50.230Z,91.88
2023-04-18T07:01:17.308Z,91.72
2023-04-18T07:03:44.541Z,90.98
2023-04-18T07:06:11.692Z,92.94
2023-04-18T07:08:38.820Z,91.07
2023-04-18T07:11:06.761Z,90.59
2023-04-18T07:13:33.821Z,90.31
2023-04-18T07:16:01.644Z,89.45
2023-04-18T07:18:37.574Z,89.84
2023-04-18T07:21:08.872Z,90.92
2023-04-18T07:23:36.606Z,87.68
2023-04-18T07:26:05.782Z,88.05
2023-04-18T07:28:33.462Z,87.42
2023-04-18T07:31:01.315Z,86.16
2023-04-18T07:33:31.761Z,87.06
2023-04-18T07:35:59.028Z,84.47
2023-04-18T07:38:26.965Z,85.04
2023-04-18T07:41:02.344Z,84.04
2023-04-18T07:43:29.338Z,82.20
2023-04-18T07:45:56.541Z,80.74
2023-04-18T07:48:25.169Z,80.29
2023-04-18T07:50:52.453Z,79.41
2023-04-18T07:53:19.846Z,75.59
2023-04-18T07:55:46.942Z,68.60
2023-04-18T07:58:14.200Z,65.39
2023-04-18T08:00:42.754Z,59.04
2023-04-18T08:03:11.132Z,53.83
2023-04-18T08:05:42.909Z,49.07
2023-04-18T08:08:12.011Z,47.06
2023-04-18T08:10:39.271Z,49.78
2023-04-18T08:13:07.031Z,50.81
2023-04-18T08:15:34.143Z,48.83
2023-04-18T08:18:01.983Z,48.89
2023-04-18T08:20:29.494Z,49.37
2023-04-18T08:23:06.793Z,48.22
2023-04-18T08:25:36.559Z,47.02
2023-04-18T08:28:04.081Z,46.80
2023-04-18T08:30:31.670Z,45.62
2023-04-18T08:33:00.587Z,45.36
2023-04-18T08:35:27.678Z,45.49
2023-04-18T08:37:55.861Z,44.75
2023-04-18T08:40:23.048Z,45.65
2023-04-18T08:42:52.950Z,45.45
2023-04-18T08:45:20.937Z,44.12
2023-04-18T08:47:48.098Z,43.98
2023-04-18T08:50:15.194Z,46.30
2023-04-18T08:52:48.809Z,46.30
2023-04-18T08:55:16.521Z,46.68
2023-04-18T08:57:44.664Z,46.50
2023-04-18T09:00:12.553Z,46.99
2023-04-18T09:02:45.050Z,45.71
2023-04-18T09:05:15.085Z,44.66
2023-04-18T09:07:42.762Z,46.16
2023-04-18T09:10:10.524Z,47.97
2023-04-18T09:12:52.401Z,45.56
2023-04-18T09:15:24.224Z,44.43
2023-04-18T09:17:54.063Z,46.36
2023-04-18T09:20:43.755Z,46.40
2023-04-18T09:23:16.270Z,43.24
2023-04-18T09:25:48.162Z,44.82
2023-04-18T09:28:33.282Z,47.65
2023-04-18T09:31:12.963Z,48.29
2023-04-18T09:33:44.754Z,48.39
2023-04-18T09:36:27.371Z,47.95
2023-04-18T09:38:57.084Z,49.11
2023-04-18T09:41:24.624Z,49.96
2023-04-18T09:44:15.010Z,50.12
2023-04-18T09:46:45.230Z,50.51
2023-04-18T09:49:14.074Z,51.77
2023-04-18T09:51:43.222Z,53.32
2023-04-18T09:54:15.134Z,53.29
2023-04-18T09:56:45.599Z,52.46
2023-04-18T09:59:17.749Z,52.26
2023-04-18T10:01:48.632Z,51.60
2023-04-18T10:04:17.764Z,51.48
2023-04-18T10:06:46.856Z,53.62
2023-04-18T10:09:16.398Z,52.45
2023-04-18T10:11:44.492Z,52.95
2023-04-18T10:14:15.538Z,53.75
2023-04-18T10:16:45.577Z,53.38
2023-04-18T10:19:28.456Z,53.12
2023-04-18T10:22:00.389Z,52.70
2023-04-18T10:24:45.904Z,52.59
2023-04-18T10:27:13.067Z,52.66
2023-04-18T10:29:53.452Z,51.41
2023-04-18T10:32:23.581Z,51.30
2023-04-18T10:34:53.513Z,51.83
2023-04-18T10:37:20.692Z,51.94
2023-04-18T10:39:56.263Z,51.42
2023-04-18T10:42:48.096Z,50.84
2023-04-18T10:45:18.819Z,50.48
2023-04-18T10:47:46.085Z,49.90
2023-04-18T10:50:13.696Z,49.12
2023-04-18T10:52:41.757Z,48.36
2023-04-18T10:55:16.735Z,47.41
2023-04-18T10:57:49.270Z,48.36
2023-04-18T11:00:21.784Z,47.71
2023-04-18T11:02:56.549Z,48.24
2023-04-18T11:05:27.753Z,48.38
2023-04-18T11:07:55.504Z,48.85
2023-04-18T11:10:25.686Z,49.83
2023-04-18T11:12:56.232Z,49.46
2023-04-18T11:15:25.448Z,49.07
2023-04-18T11:17:58.812Z,50.00
2023-04-18T11:20:26.659Z,49.17
2023-04-18T11:22:59.906Z,49.82
2023-04-18T11:25:34.492Z,49.14
2023-04-18T11:28:04.641Z,50.41
2023-04-18T11:30:42.299Z,50.90
2023-04-18T11:33:11.781Z,49.85
2023-04-18T11:35:43.424Z,49.90
2023-04-18T11:38:16.033Z,49.23
2023-04-18T11:40:50.441Z,49.39
2023-04-18T11:43:25.642Z,49.47
2023-04-18T11:46:02.143Z,49.59
2023-04-18T11:48:45.453Z,49.74
2023-04-18T11:51:34.314Z,49.54
2023-04-18T11:54:01.555Z,49.73
2023-04-18T11:56:28.558Z,49.60
2023-04-18T11:58:56.400Z,50.25
2023-04-18T12:01:25.694Z,50.88
2023-04-18T12:04:02.859Z,52.30
2023-04-18T12:06:49.989Z,52.03
2023-04-18T12:09:18.267Z,51.60
2023-04-18T12:12:01.111Z,52.17
2023-04-18T12:14:28.726Z,51.67
2023-04-18T12:16:56.293Z,51.49
2023-04-18T12:19:28.301Z,51.29
2023-04-18T12:22:05.325Z,51.19
2023-04-18T12:24:32.998Z,51.24
2023-04-18T12:27:00.161Z,51.78
2023-04-18T12:29:29.225Z,51.36
2023-04-18T12:31:56.709Z,50.50
2023-04-18T12:34:23.974Z,51.12
2023-04-18T12:36:51.114Z,50.85
2023-04-18T12:39:18.056Z,51.21
2023-04-18T12:41:45.346Z,51.97
2023-04-18T12:44:13.321Z,50.97
2023-04-18T12:46:40.602Z,51.83
2023-04-18T12:49:08.290Z,50.82
2023-04-18T12:51:35.277Z,51.65
2023-04-18T12:54:02.390Z,51.63
2023-04-18T12:56:29.439Z,50.29
2023-04-18T12:58:56.487Z,50.79
2023-04-18T13:01:23.496Z,50.56
2023-04-18T13:03:59.855Z,50.07
2023-04-18T13:06:31.595Z,50.51
2023-04-18T13:08:59.050Z,49.94
2023-04-18T13:11:28.646Z,49.02
2023-04-18T13:13:55.864Z,48.78
2023-04-18T13:16:22.949Z,49.47
2023-04-18T13:18:49.986Z,48.24
2023-04-18T13:21:17.178Z,48.12
2023-04-18T13:23:44.281Z,48.66
2023-04-18T13:26:11.262Z,49.82
2023-04-18T13:28:38.358Z,48.79
2023-04-18T13:31:06.072Z,47.76
2023-04-18T13:33:33.056Z,47.82
2023-04-18T13:36:00.055Z,47.32
2023-04-18T13:38:28.056Z,46.88
2023-04-18T13:41:08.555Z,45.98
2023-04-18T13:43:38.219Z,46.08
2023-04-18T13:46:05.452Z,46.69
2023-04-18T13:48:32.494Z,46.64
2023-04-18T13:50:59.469Z,47.06
2023-04-18T13:53:27.212Z,46.57
2023-04-18T13:55:54.960Z,44.77
2023-04-18T13:58:21.994Z,46.32
2023-04-18T14:00:48.998Z,46.56
2023-04-18T14:03:16.313Z,45.63
2023-04-18T14:05:43.407Z,45.65
2023-04-18T14:08:10.485Z,46.73
2023-04-18T14:10:37.615Z,45.84
2023-04-18T14:13:04.589Z,45.70
2023-04-18T14:15:33.292Z,45.71
2023-04-18T14:18:01.177Z,45.51
2023-04-18T14:20:34.328Z,46.70
2023-04-18T14:23:02.091Z,46.55
2023-04-18T14:25:30.272Z,45.55
2023-04-18T14:28:11.018Z,46.35
2023-04-18T14:30:39.549Z,44.69
2023-04-18T14:33:08.734Z,46.57
2023-04-18T14:35:36.085Z,46.29
2023-04-18T14:38:03.291Z,46.65
2023-04-18T14:40:32.558Z,45.84
2023-04-18T14:43:00.034Z,45.79
2023-04-18T14:45:27.083Z,45.78
2023-04-18T14:47:55.815Z,45.79
2023-04-18T14:50:22.999Z,45.95
2023-04-18T14:52:51.490Z,45.67
2023-04-18T14:55:21.820Z,45.65
2023-04-18T14:57:48.862Z,45.26
2023-04-18T15:00:16.322Z,45.00
2023-04-18T15:02:43.644Z,44.28
2023-04-18T15:05:12.442Z,44.45
2023-04-18T15:07:40.819Z,43.90
2023-04-18T15:10:08.745Z,44.68
2023-04-18T15:12:36.038Z,44.21
2023-04-18T15:15:03.072Z,43.75
2023-04-18T15:17:30.153Z,43.81
2023-04-18T15:19:59.110Z,43.97
2023-04-18T15:22:26.084Z,44.14
2023-04-18T15:24:53.077Z,43.76
2023-04-18T15:27:20.066Z,44.48
2023-04-18T15:29:47.087Z,44.13
2023-04-18T15:32:14.439Z,44.19
2023-04-18T15:34:41.608Z,44.36
2023-04-18T15:37:09.382Z,44.34
2023-04-18T15:39:36.856Z,44.29
2023-04-18T15:42:03.940Z,45.20
2023-04-18T15:44:31.116Z,45.04
2023-04-18T15:47:00.520Z,45.48
2023-04-18T15:49:27.867Z,45.99
2023-04-18T15:51:56.647Z,45.46
2023-04-18T15:54:23.709Z,45.46
2023-04-18T15:56:51.127Z,45.86
2023-04-18T15:59:18.124Z,46.31
2023-04-18T16:01:46.182Z,46.16
2023-04-18T16:04:13.624Z,46.07
2023-04-18T16:06:40.968Z,46.48
2023-04-18T16:09:08.175Z,46.19
2023-04-18T16:11:35.248Z,46.44
2023-04-18T16:14:02.233Z,46.89
2023-04-18T16:16:29.520Z,46.88
2023-04-18T16:18:56.632Z,46.90
2023-04-18T16:21:23.683Z,47.10
2023-04-18T16:23:50.746Z,46.99
2023-04-18T16:26:17.849Z,46.86
2023-04-18T16:28:44.853Z,47.42
2023-04-18T16:31:13.991Z,47.71
2023-04-18T16:33:41.210Z,47.85
2023-04-18T16:36:09.236Z,47.87
2023-04-18T16:38:36.317Z,48.23
2023-04-18T16:41:03.760Z,48.32
2023-04-18T16:43:31.165Z,48.25
2023-04-18T16:46:00.313Z,48.43
2023-04-18T16:48:28.999Z,48.42
2023-04-18T16:50:56.667Z,48.87
2023-04-18T16:53:24.811Z,48.83
2023-04-18T16:55:53.109Z,48.90
2023-04-18T16:58:21.642Z,48.86
2023-04-18T17:00:48.661Z,49.02
2023-04-18T17:03:15.930Z,49.23
2023-04-18T17:05:43.011Z,49.49
2023-04-18T17:08:10.049Z,49.48
2023-04-18T17:10:37.036Z,49.58
2023-04-18T17:13:04.306Z,49.42
2023-04-18T17:15:31.378Z,49.71
2023-04-18T17:18:00.392Z,49.85
2023-04-18T17:20:28.374Z,49.91
2023-04-18T17:22:55.693Z,50.20
2023-04-18T17:25:22.693Z,50.53
2023-04-18T17:27:49.684Z,50.59
2023-04-18T17:30:16.838Z,50.49
2023-04-18T17:32:46.108Z,50.75
2023-04-18T17:35:14.741Z,50.50
2023-04-18T17:37:45.348Z,50.44
2023-04-18T17:40:13.154Z,51.01
2023-04-18T17:42:40.514Z,51.18
2023-04-18T17:45:09.561Z,50.99
2023-04-18T17:47:36.958Z,50.99
2023-04-18T17:50:05.194Z,50.42
2023-04-18T17:52:32.614Z,50.31
2023-04-18T17:55:01.648Z,50.25
2023-04-18T17:57:30.522Z,50.69
2023-04-18T17:59:57.604Z,50.98
2023-04-18T18:02:24.877Z,50.99
2023-04-18T18:04:51.994Z,50.98
2023-04-18T18:07:18.951Z,50.25
2023-04-18T18:09:46.068Z,50.86
2023-04-18T18:12:13.605Z,50.35
2023-04-18T18:14:40.597Z,50.88
2023-04-18T18:17:07.766Z,50.60
2023-04-18T18:19:38.918Z,50.53
2023-04-18T18:22:06.299Z,50.71
2023-04-18T18:24:33.324Z,50.85
2023-04-18T18:27:00.508Z,50.55
2023-04-18T18:29:27.581Z,50.71
2023-04-18T18:31:54.840Z,51.06
2023-04-18T18:34:22.075Z,51.26
2023-04-18T18:36:49.272Z,51.43
2023-04-18T18:39:16.683Z,51.35
2023-04-18T18:41:43.916Z,51.46
2023-04-18T18:44:11.851Z,51.74
2023-04-18T18:46:38.952Z,51.73
2023-04-18T18:49:05.968Z,51.83
2023-04-18T18:51:33.086Z,51.43
2023-04-18T18:54:00.151Z,51.86
2023-04-18T18:56:27.250Z,51.71
2023-04-18T18:58:57.428Z,51.99
2023-04-18T19:01:24.641Z,52.54
2023-04-18T19:03:51.819Z,51.89
2023-04-18T19:06:18.843Z,52.22
2023-04-18T19:08:45.891Z,52.65
2023-04-18T19:11:12.920Z,52.51
2023-04-18T19:13:40.021Z,53.03
2023-04-18T19:16:07.361Z,53.10
2023-04-18T19:18:34.455Z,53.31
2023-04-18T19:21:02.541Z,53.84
2023-04-18T19:23:30.964Z,53.58
2023-04-18T19:25:58.234Z,53.85
2023-04-18T19:28:25.874Z,53.32
2023-04-18T19:30:53.191Z,53.28
2023-04-18T19:33:21.252Z,53.44
2023-04-18T19:35:48.279Z,53.83
2023-04-18T19:38:15.412Z,53.34
2023-04-18T19:40:42.674Z,53.70
2023-04-18T19:43:09.745Z,53.65
2023-04-18T19:45:36.821Z,53.90
2023-04-18T19:48:04.147Z,54.42
2023-04-18T19:50:31.196Z,54.46
2023-04-18T19:52:58.204Z,54.73
2023-04-18T19:55:25.361Z,55.39
2023-04-18T19:57:56.796Z,55.65
2023-04-18T20:00:23.945Z,55.52
2023-04-18T20:02:51.194Z,56.15
2023-04-18T20:05:18.673Z,56.32
2023-04-18T20:07:45.903Z,56.63
2023-04-18T20:10:12.961Z,56.73
2023-04-18T20:12:40.280Z,57.83
2023-04-18T20:15:08.349Z,58.03
2023-04-18T20:17:35.464Z,58.15
2023-04-18T20:20:02.868Z,59.01
2023-04-18T20:22:29.923Z,59.65
2023-04-18T20:24:57.372Z,60.06
2023-04-18T20:27:24.425Z,60.58
2023-04-18T20:29:51.600Z,61.21
2023-04-18T20:32:18.587Z,61.10
2023-04-18T20:34:46.709Z,61.73
2023-04-18T20:37:15.988Z,61.93
2023-04-18T20:39:43.019Z,62.91
2023-04-18T20:42:14.172Z,63.10
2023-04-18T20:44:47.023Z,63.68
2023-04-18T20:47:15.823Z,64.52
2023-04-18T20:49:43.134Z,64.60
2023-04-18T20:52:10.361Z,64.62
2023-04-18T20:54:37.374Z,65.31
2023-04-18T20:57:04.527Z,65.43
2023-04-18T20:59:31.574Z,66.03
2023-04-18T21:01:58.665Z,66.97
2023-04-18T21:04:26.629Z,66.59
2023-04-18T21:06:53.879Z,66.88
2023-04-18T21:09:20.875Z,67.63
2023-04-18T21:11:47.988Z,67.53
2023-04-18T21:14:17.125Z,67.83
2023-04-18T21:16:44.373Z,68.56
2023-04-18T21:19:11.805Z,68.58
2023-04-18T21:21:38.815Z,68.88
2023-04-18T21:24:06.149Z,68.32
2023-04-18T21:26:33.276Z,68.06
2023-04-18T21:29:02.593Z,67.84
2023-04-18T21:31:31.764Z,68.21
2023-04-18T21:34:01.568Z,67.84
2023-04-18T21:36:30.994Z,67.73
2023-04-18T21:39:01.040Z,67.87
2023-04-18T21:41:28.520Z,67.70
2023-04-18T21:43:55.721Z,67.64
2023-04-18T21:46:22.860Z,67.72
2023-04-18T21:48:49.974Z,67.19
2023-04-18T21:51:17.499Z,68.39
2023-04-18T21:53:44.771Z,66.97
2023-04-18T21:56:11.971Z,67.17
2023-04-18T21:58:39.047Z,67.06
2023-04-18T22:01:06.311Z,66.97
2023-04-18T22:03:34.357Z,67.50
2023-04-18T22:06:02.016Z,67.19
2023-04-18T22:08:29.556Z,68.16
2023-04-18T22:10:59.004Z,67.75
2023-04-18T22:13:33.137Z,67.86
2023-04-18T22:16:04.843Z,68.33
2023-04-18T22:18:34.062Z,69.28
2023-04-18T22:21:03.373Z,70.37
2023-04-18T22:23:31.133Z,70.64
2023-04-18T22:25:58.336Z,70.41
2023-04-18T22:28:27.820Z,70.99
2023-04-18T22:30:54.971Z,71.82
2023-04-18T22:33:22.069Z,72.01
2023-04-18T22:35:49.194Z,72.18
2023-04-18T22:38:16.398Z,71.03
2023-04-18T22:40:43.442Z,71.87
2023-04-18T22:43:10.414Z,72.28
2023-04-18T22:45:37.403Z,72.54
2023-04-18T22:48:04.938Z,71.99
2023-04-18T22:50:32.003Z,71.92
2023-04-18T22:52:58.981Z,71.75
2023-04-18T22:55:25.952Z,72.47
2023-04-18T22:57:52.968Z,73.11
2023-04-18T23:00:20.118Z,73.00
2023-04-18T23:02:47.199Z,73.15
2023-04-18T23:05:16.115Z,73.91
2023-04-18T23:07:43.129Z,75.06
2023-04-18T23:10:10.926Z,76.64
2023-04-18T23:12:37.909Z,77.26
2023-04-18T23:15:05.531Z,77.83
2023-04-18T23:17:34.920Z,79.43
2023-04-18T23:20:02.034Z,78.38
2023-04-18T23:22:29.571Z,79.34
2023-04-18T23:24:56.558Z,78.51
2023-04-18T23:27:23.589Z,79.90
2023-04-18T23:29:50.763Z,79.86
2023-04-18T23:32:17.808Z,80.16
2023-04-18T23:34:46.043Z,79.38
2023-04-18T23:37:12.998Z,79.97
2023-04-18T23:39:40.040Z,81.32
2023-04-18T23:42:07.145Z,80.79
2023-04-18T23:44:34.266Z,81.18
2023-04-18T23:47:01.320Z,81.09
2023-04-18T23:49:28.523Z,81.50
2023-04-18T23:51:55.516Z,81.16
2023-04-18T23:54:22.563Z,81.67
2023-04-18T23:56:49.764Z,81.60
2023-04-18T23:59:16.754Z,81.80
